sensor_id;sensor_type;location;lat;lon;timestamp;P1;durP1;ratioP1;P2;durP2;ratioP2
54384;SDS011;40284;52.878;5.998;2024-03-22T00:01:53;37.83;;;28.58;;
54384;SDS011;40284;52.878;5.998;2024-03-22T00:04:19;41.72;;;30.08;;
54384;SDS011;40284;52.878;5.998;2024-03-22T00:06:46;39.45;;;29.38;;
54384;SDS011;40284;52.878;5.998;2024-03-22T00:09:13;42.85;;;31.02;;
54384;SDS011;40284;52.878;5.998;2024-03-22T00:11:39;44.00;;;31.15;;
54384;SDS011;40284;52.878;5.998;2024-03-22T00:14:06;40.03;;;29.25;;
54384;SDS011;40284;52.878;5.998;2024-03-22T00:16:32;41.40;;;30.30;;
54384;SDS011;40284;52.878;5.998;2024-03-22T00:18:58;38.92;;;30.23;;
54384;SDS011;40284;52.878;5.998;2024-03-22T00:21:25;43.90;;;30.58;;
54384;SDS011;40284;52.878;5.998;2024-03-22T00:23:51;42.08;;;31.38;;
54384;SDS011;40284;52.878;5.998;2024-03-22T00:26:17;43.42;;;30.95;;
54384;SDS011;40284;52.878;5.998;2024-03-22T00:28:43;42.38;;;30.00;;
54384;SDS011;40284;52.878;5.998;2024-03-22T00:31:09;41.28;;;30.10;;
54384;SDS011;40284;52.878;5.998;2024-03-22T00:33:35;42.40;;;30.77;;
54384;SDS011;40284;52.878;5.998;2024-03-22T00:36:01;43.13;;;31.15;;
54384;SDS011;40284;52.878;5.998;2024-03-22T00:38:27;42.22;;;30.25;;
54384;SDS011;40284;52.878;5.998;2024-03-22T00:40:54;44.13;;;32.10;;
54384;SDS011;40284;52.878;5.998;2024-03-22T00:43:20;47.95;;;32.28;;
54384;SDS011;40284;52.878;5.998;2024-03-22T00:45:46;46.67;;;33.97;;
54384;SDS011;40284;52.878;5.998;2024-03-22T00:48:12;45.30;;;31.42;;
54384;SDS011;40284;52.878;5.998;2024-03-22T00:50:39;49.00;;;33.80;;
54384;SDS011;40284;52.878;5.998;2024-03-22T00:53:05;43.60;;;32.95;;
54384;SDS011;40284;52.878;5.998;2024-03-22T00:55:33;47.55;;;32.30;;
54384;SDS011;40284;52.878;5.998;2024-03-22T00:57:59;47.50;;;35.10;;
54384;SDS011;40284;52.878;5.998;2024-03-22T01:00:25;50.28;;;33.67;;
54384;SDS011;40284;52.878;5.998;2024-03-22T01:02:51;50.30;;;35.40;;
54384;SDS011;40284;52.878;5.998;2024-03-22T01:05:17;50.60;;;32.50;;
54384;SDS011;40284;52.878;5.998;2024-03-22T01:07:43;52.20;;;34.60;;
54384;SDS011;40284;52.878;5.998;2024-03-22T01:10:10;54.70;;;35.05;;
54384;SDS011;40284;52.878;5.998;2024-03-22T01:12:36;53.47;;;34.03;;
54384;SDS011;40284;52.878;5.998;2024-03-22T01:15:03;51.13;;;35.08;;
54384;SDS011;40284;52.878;5.998;2024-03-22T01:17:29;54.45;;;35.08;;
54384;SDS011;40284;52.878;5.998;2024-03-22T01:19:55;53.10;;;36.03;;
54384;SDS011;40284;52.878;5.998;2024-03-22T01:22:21;56.03;;;33.95;;
54384;SDS011;40284;52.878;5.998;2024-03-22T01:24:48;48.80;;;33.55;;
54384;SDS011;40284;52.878;5.998;2024-03-22T01:27:14;54.35;;;35.58;;
54384;SDS011;40284;52.878;5.998;2024-03-22T01:29:40;53.75;;;35.08;;
54384;SDS011;40284;52.878;5.998;2024-03-22T01:32:06;52.85;;;35.85;;
54384;SDS011;40284;52.878;5.998;2024-03-22T01:34:32;52.47;;;33.78;;
54384;SDS011;40284;52.878;5.998;2024-03-22T01:37:00;65.15;;;38.28;;
54384;SDS011;40284;52.878;5.998;2024-03-22T01:39:26;63.35;;;37.92;;
54384;SDS011;40284;52.878;5.998;2024-03-22T01:41:52;59.65;;;37.78;;
54384;SDS011;40284;52.878;5.998;2024-03-22T01:44:18;62.08;;;37.42;;
54384;SDS011;40284;52.878;5.998;2024-03-22T01:46:44;64.18;;;37.40;;
54384;SDS011;40284;52.878;5.998;2024-03-22T01:49:14;69.03;;;40.05;;
54384;SDS011;40284;52.878;5.998;2024-03-22T01:51:41;65.00;;;39.50;;
54384;SDS011;40284;52.878;5.998;2024-03-22T01:54:08;60.60;;;38.63;;
54384;SDS011;40284;52.878;5.998;2024-03-22T01:56:37;68.80;;;40.85;;
54384;SDS011;40284;52.878;5.998;2024-03-22T01:59:07;70.43;;;39.90;;
54384;SDS011;40284;52.878;5.998;2024-03-22T02:01:33;69.50;;;40.00;;
54384;SDS011;40284;52.878;5.998;2024-03-22T02:03:59;65.45;;;39.47;;
54384;SDS011;40284;52.878;5.998;2024-03-22T02:06:25;75.43;;;42.63;;
54384;SDS011;40284;52.878;5.998;2024-03-22T02:08:51;67.70;;;42.30;;
54384;SDS011;40284;52.878;5.998;2024-03-22T02:11:17;74.95;;;42.38;;
54384;SDS011;40284;52.878;5.998;2024-03-22T02:13:43;71.10;;;39.97;;
54384;SDS011;40284;52.878;5.998;2024-03-22T02:16:10;70.95;;;41.92;;
54384;SDS011;40284;52.878;5.998;2024-03-22T02:18:36;76.40;;;43.40;;
54384;SDS011;40284;52.878;5.998;2024-03-22T02:21:02;73.32;;;41.33;;
54384;SDS011;40284;52.878;5.998;2024-03-22T02:23:34;77.30;;;43.45;;
54384;SDS011;40284;52.878;5.998;2024-03-22T02:26:01;79.72;;;45.33;;
54384;SDS011;40284;52.878;5.998;2024-03-22T02:28:27;80.10;;;43.45;;
54384;SDS011;40284;52.878;5.998;2024-03-22T02:30:53;78.03;;;43.92;;
54384;SDS011;40284;52.878;5.998;2024-03-22T02:33:19;75.63;;;42.75;;
54384;SDS011;40284;52.878;5.998;2024-03-22T02:35:46;69.82;;;42.83;;
54384;SDS011;40284;52.878;5.998;2024-03-22T02:38:12;69.95;;;43.88;;
54384;SDS011;40284;52.878;5.998;2024-03-22T02:40:38;76.57;;;44.50;;
54384;SDS011;40284;52.878;5.998;2024-03-22T02:43:04;72.03;;;41.55;;
54384;SDS011;40284;52.878;5.998;2024-03-22T02:45:31;78.47;;;43.30;;
54384;SDS011;40284;52.878;5.998;2024-03-22T02:47:57;73.25;;;42.20;;
54384;SDS011;40284;52.878;5.998;2024-03-22T02:50:23;76.60;;;43.75;;
54384;SDS011;40284;52.878;5.998;2024-03-22T02:52:49;74.25;;;41.67;;
54384;SDS011;40284;52.878;5.998;2024-03-22T02:55:16;79.13;;;42.70;;
54384;SDS011;40284;52.878;5.998;2024-03-22T02:57:42;78.43;;;43.15;;
54384;SDS011;40284;52.878;5.998;2024-03-22T03:00:08;70.85;;;40.50;;
54384;SDS011;40284;52.878;5.998;2024-03-22T03:02:34;74.97;;;42.53;;
54384;SDS011;40284;52.878;5.998;2024-03-22T03:05:00;76.45;;;42.00;;
54384;SDS011;40284;52.878;5.998;2024-03-22T03:07:27;73.03;;;40.63;;
54384;SDS011;40284;52.878;5.998;2024-03-22T03:09:53;74.60;;;40.03;;
54384;SDS011;40284;52.878;5.998;2024-03-22T03:12:19;74.65;;;42.42;;
54384;SDS011;40284;52.878;5.998;2024-03-22T03:14:45;71.03;;;39.72;;
54384;SDS011;40284;52.878;5.998;2024-03-22T03:17:11;77.65;;;42.75;;
54384;SDS011;40284;52.878;5.998;2024-03-22T03:19:37;71.25;;;38.72;;
54384;SDS011;40284;52.878;5.998;2024-03-22T03:22:03;67.05;;;37.03;;
54384;SDS011;40284;52.878;5.998;2024-03-22T03:24:30;74.28;;;39.38;;
54384;SDS011;40284;52.878;5.998;2024-03-22T03:26:56;66.90;;;37.15;;
54384;SDS011;40284;52.878;5.998;2024-03-22T03:29:22;70.65;;;39.67;;
54384;SDS011;40284;52.878;5.998;2024-03-22T03:31:48;73.80;;;37.60;;
54384;SDS011;40284;52.878;5.998;2024-03-22T03:34:14;68.05;;;38.50;;
54384;SDS011;40284;52.878;5.998;2024-03-22T03:36:41;65.55;;;36.83;;
54384;SDS011;40284;52.878;5.998;2024-03-22T03:39:07;66.22;;;35.90;;
54384;SDS011;40284;52.878;5.998;2024-03-22T03:41:33;61.40;;;34.90;;
54384;SDS011;40284;52.878;5.998;2024-03-22T03:43:59;69.07;;;38.30;;
54384;SDS011;40284;52.878;5.998;2024-03-22T03:46:25;64.80;;;37.15;;
54384;SDS011;40284;52.878;5.998;2024-03-22T03:48:51;65.47;;;35.00;;
54384;SDS011;40284;52.878;5.998;2024-03-22T03:51:17;68.55;;;37.05;;
54384;SDS011;40284;52.878;5.998;2024-03-22T03:53:43;60.60;;;33.75;;
54384;SDS011;40284;52.878;5.998;2024-03-22T03:56:09;66.18;;;35.70;;
54384;SDS011;40284;52.878;5.998;2024-03-22T03:58:35;59.35;;;33.47;;
54384;SDS011;40284;52.878;5.998;2024-03-22T04:01:05;69.32;;;35.90;;
54384;SDS011;40284;52.878;5.998;2024-03-22T04:03:31;61.25;;;32.80;;
54384;SDS011;40284;52.878;5.998;2024-03-22T04:05:57;68.35;;;35.03;;
54384;SDS011;40284;52.878;5.998;2024-03-22T04:08:24;63.72;;;35.53;;
54384;SDS011;40284;52.878;5.998;2024-03-22T04:10:51;57.72;;;33.50;;
54384;SDS011;40284;52.878;5.998;2024-03-22T04:13:18;68.45;;;33.20;;
54384;SDS011;40284;52.878;5.998;2024-03-22T04:15:44;52.53;;;31.52;;
54384;SDS011;40284;52.878;5.998;2024-03-22T04:18:10;56.35;;;31.83;;
54384;SDS011;40284;52.878;5.998;2024-03-22T04:20:36;56.88;;;32.10;;
54384;SDS011;40284;52.878;5.998;2024-03-22T04:23:02;56.13;;;31.58;;
54384;SDS011;40284;52.878;5.998;2024-03-22T04:25:28;55.83;;;31.13;;
54384;SDS011;40284;52.878;5.998;2024-03-22T04:27:54;56.78;;;30.98;;
54384;SDS011;40284;52.878;5.998;2024-03-22T04:30:20;50.35;;;29.52;;
54384;SDS011;40284;52.878;5.998;2024-03-22T04:32:46;54.08;;;30.98;;
54384;SDS011;40284;52.878;5.998;2024-03-22T04:35:12;56.22;;;29.23;;
54384;SDS011;40284;52.878;5.998;2024-03-22T04:37:38;53.25;;;29.27;;
54384;SDS011;40284;52.878;5.998;2024-03-22T04:40:05;44.90;;;27.50;;
54384;SDS011;40284;52.878;5.998;2024-03-22T04:42:31;52.20;;;27.73;;
54384;SDS011;40284;52.878;5.998;2024-03-22T04:44:57;55.28;;;28.65;;
54384;SDS011;40284;52.878;5.998;2024-03-22T04:47:23;44.97;;;26.92;;
54384;SDS011;40284;52.878;5.998;2024-03-22T04:49:49;46.47;;;26.70;;
54384;SDS011;40284;52.878;5.998;2024-03-22T04:52:15;41.97;;;24.80;;
54384;SDS011;40284;52.878;5.998;2024-03-22T04:54:41;40.42;;;25.83;;
54384;SDS011;40284;52.878;5.998;2024-03-22T04:57:07;37.75;;;25.05;;
54384;SDS011;40284;52.878;5.998;2024-03-22T04:59:33;41.38;;;23.90;;
54384;SDS011;40284;52.878;5.998;2024-03-22T05:01:59;43.83;;;24.73;;
54384;SDS011;40284;52.878;5.998;2024-03-22T05:04:25;43.00;;;23.77;;
54384;SDS011;40284;52.878;5.998;2024-03-22T05:06:51;41.72;;;23.25;;
54384;SDS011;40284;52.878;5.998;2024-03-22T05:09:17;42.03;;;25.02;;
54384;SDS011;40284;52.878;5.998;2024-03-22T05:11:43;46.78;;;24.33;;
54384;SDS011;40284;52.878;5.998;2024-03-22T05:14:14;36.90;;;23.48;;
54384;SDS011;40284;52.878;5.998;2024-03-22T05:16:41;42.42;;;23.40;;
54384;SDS011;40284;52.878;5.998;2024-03-22T05:19:07;42.05;;;24.20;;
54384;SDS011;40284;52.878;5.998;2024-03-22T05:21:33;44.25;;;25.10;;
54384;SDS011;40284;52.878;5.998;2024-03-22T05:23:59;42.72;;;27.67;;
54384;SDS011;40284;52.878;5.998;2024-03-22T05:26:25;41.03;;;23.23;;
54384;SDS011;40284;52.878;5.998;2024-03-22T05:28:51;39.67;;;25.90;;
54384;SDS011;40284;52.878;5.998;2024-03-22T05:31:17;45.95;;;24.77;;
54384;SDS011;40284;52.878;5.998;2024-03-22T05:33:43;43.28;;;23.63;;
54384;SDS011;40284;52.878;5.998;2024-03-22T05:36:09;43.67;;;24.08;;
54384;SDS011;40284;52.878;5.998;2024-03-22T05:38:35;37.00;;;23.77;;
54384;SDS011;40284;52.878;5.998;2024-03-22T05:41:04;45.72;;;24.65;;
54384;SDS011;40284;52.878;5.998;2024-03-22T05:43:31;43.08;;;24.38;;
54384;SDS011;40284;52.878;5.998;2024-03-22T05:45:57;53.15;;;26.00;;
54384;SDS011;40284;52.878;5.998;2024-03-22T05:48:23;45.92;;;24.58;;
54384;SDS011;40284;52.878;5.998;2024-03-22T05:50:49;41.90;;;24.17;;
54384;SDS011;40284;52.878;5.998;2024-03-22T05:53:15;43.22;;;23.65;;
54384;SDS011;40284;52.878;5.998;2024-03-22T05:55:42;42.60;;;24.23;;
54384;SDS011;40284;52.878;5.998;2024-03-22T05:58:08;42.95;;;24.45;;
54384;SDS011;40284;52.878;5.998;2024-03-22T06:00:34;42.67;;;24.75;;
54384;SDS011;40284;52.878;5.998;2024-03-22T06:03:00;42.42;;;23.25;;
54384;SDS011;40284;52.878;5.998;2024-03-22T06:05:26;43.13;;;22.90;;
54384;SDS011;40284;52.878;5.998;2024-03-22T06:07:52;44.28;;;22.42;;
54384;SDS011;40284;52.878;5.998;2024-03-22T06:10:18;54.05;;;24.63;;
54384;SDS011;40284;52.878;5.998;2024-03-22T06:12:44;37.08;;;21.13;;
54384;SDS011;40284;52.878;5.998;2024-03-22T06:15:12;45.15;;;23.35;;
54384;SDS011;40284;52.878;5.998;2024-03-22T06:17:38;43.33;;;20.30;;
54384;SDS011;40284;52.878;5.998;2024-03-22T06:20:04;47.13;;;21.50;;
54384;SDS011;40284;52.878;5.998;2024-03-22T06:22:31;47.80;;;21.48;;
54384;SDS011;40284;52.878;5.998;2024-03-22T06:24:57;37.28;;;19.80;;
54384;SDS011;40284;52.878;5.998;2024-03-22T06:27:23;42.80;;;19.67;;
54384;SDS011;40284;52.878;5.998;2024-03-22T06:29:49;42.85;;;17.90;;
54384;SDS011;40284;52.878;5.998;2024-03-22T06:32:15;36.83;;;18.45;;
54384;SDS011;40284;52.878;5.998;2024-03-22T06:34:41;42.67;;;19.05;;
54384;SDS011;40284;52.878;5.998;2024-03-22T06:37:07;34.40;;;17.25;;
54384;SDS011;40284;52.878;5.998;2024-03-22T06:39:34;31.52;;;17.88;;
54384;SDS011;40284;52.878;5.998;2024-03-22T06:42:00;35.85;;;18.00;;
54384;SDS011;40284;52.878;5.998;2024-03-22T06:44:26;40.47;;;17.83;;
54384;SDS011;40284;52.878;5.998;2024-03-22T06:46:52;32.03;;;15.65;;
54384;SDS011;40284;52.878;5.998;2024-03-22T06:49:18;33.92;;;16.23;;
54384;SDS011;40284;52.878;5.998;2024-03-22T06:51:44;42.78;;;16.30;;
54384;SDS011;40284;52.878;5.998;2024-03-22T06:54:10;37.72;;;16.95;;
54384;SDS011;40284;52.878;5.998;2024-03-22T06:56:36;31.00;;;15.65;;
54384;SDS011;40284;52.878;5.998;2024-03-22T06:59:03;36.85;;;14.57;;
54384;SDS011;40284;52.878;5.998;2024-03-22T07:01:29;34.08;;;16.10;;
54384;SDS011;40284;52.878;5.998;2024-03-22T07:03:55;32.53;;;15.40;;
54384;SDS011;40284;52.878;5.998;2024-03-22T07:06:21;40.50;;;15.43;;
54384;SDS011;40284;52.878;5.998;2024-03-22T07:08:47;37.92;;;17.58;;
54384;SDS011;40284;52.878;5.998;2024-03-22T07:11:13;31.52;;;15.05;;
54384;SDS011;40284;52.878;5.998;2024-03-22T07:13:39;33.95;;;15.82;;
54384;SDS011;40284;52.878;5.998;2024-03-22T07:16:05;28.13;;;14.13;;
54384;SDS011;40284;52.878;5.998;2024-03-22T07:18:31;28.08;;;14.25;;
54384;SDS011;40284;52.878;5.998;2024-03-22T07:20:57;37.28;;;15.38;;
54384;SDS011;40284;52.878;5.998;2024-03-22T07:23:26;28.92;;;14.35;;
54384;SDS011;40284;52.878;5.998;2024-03-22T07:25:52;33.25;;;15.30;;
54384;SDS011;40284;52.878;5.998;2024-03-22T07:28:18;36.28;;;16.63;;
54384;SDS011;40284;52.878;5.998;2024-03-22T07:30:44;28.92;;;14.23;;
54384;SDS011;40284;52.878;5.998;2024-03-22T07:33:10;31.67;;;15.80;;
54384;SDS011;40284;52.878;5.998;2024-03-22T07:35:41;28.98;;;14.73;;
54384;SDS011;40284;52.878;5.998;2024-03-22T07:38:07;32.72;;;14.77;;
54384;SDS011;40284;52.878;5.998;2024-03-22T07:40:33;34.60;;;15.00;;
54384;SDS011;40284;52.878;5.998;2024-03-22T07:42:59;24.90;;;14.88;;
54384;SDS011;40284;52.878;5.998;2024-03-22T07:45:31;36.15;;;15.40;;
54384;SDS011;40284;52.878;5.998;2024-03-22T07:47:57;26.85;;;15.40;;
54384;SDS011;40284;52.878;5.998;2024-03-22T07:50:23;26.08;;;14.63;;
54384;SDS011;40284;52.878;5.998;2024-03-22T07:52:49;32.28;;;15.05;;
54384;SDS011;40284;52.878;5.998;2024-03-22T07:55:15;33.38;;;15.65;;
54384;SDS011;40284;52.878;5.998;2024-03-22T07:57:41;34.72;;;16.70;;
54384;SDS011;40284;52.878;5.998;2024-03-22T08:00:07;31.00;;;16.00;;
54384;SDS011;40284;52.878;5.998;2024-03-22T08:02:34;33.13;;;15.68;;
54384;SDS011;40284;52.878;5.998;2024-03-22T08:05:00;32.85;;;17.23;;
54384;SDS011;40284;52.878;5.998;2024-03-22T08:07:27;35.30;;;17.27;;
54384;SDS011;40284;52.878;5.998;2024-03-22T08:09:53;33.58;;;17.10;;
54384;SDS011;40284;52.878;5.998;2024-03-22T08:12:20;35.03;;;17.15;;
54384;SDS011;40284;52.878;5.998;2024-03-22T08:14:46;34.80;;;17.27;;
54384;SDS011;40284;52.878;5.998;2024-03-22T08:17:13;33.15;;;17.95;;
54384;SDS011;40284;52.878;5.998;2024-03-22T08:19:40;32.33;;;17.60;;
54384;SDS011;40284;52.878;5.998;2024-03-22T08:22:06;41.70;;;18.17;;
54384;SDS011;40284;52.878;5.998;2024-03-22T08:24:32;38.00;;;18.90;;
54384;SDS011;40284;52.878;5.998;2024-03-22T08:26:59;42.42;;;20.10;;
54384;SDS011;40284;52.878;5.998;2024-03-22T08:29:25;38.92;;;19.50;;
54384;SDS011;40284;52.878;5.998;2024-03-22T08:31:51;41.65;;;19.67;;
54384;SDS011;40284;52.878;5.998;2024-03-22T08:34:17;37.72;;;18.45;;
54384;SDS011;40284;52.878;5.998;2024-03-22T08:36:43;34.53;;;18.60;;
54384;SDS011;40284;52.878;5.998;2024-03-22T08:39:09;39.05;;;18.98;;
54384;SDS011;40284;52.878;5.998;2024-03-22T08:41:36;39.08;;;18.80;;
54384;SDS011;40284;52.878;5.998;2024-03-22T08:44:03;49.08;;;21.17;;
54384;SDS011;40284;52.878;5.998;2024-03-22T08:46:29;43.97;;;19.55;;
54384;SDS011;40284;52.878;5.998;2024-03-22T08:48:57;46.15;;;19.13;;
54384;SDS011;40284;52.878;5.998;2024-03-22T08:51:23;31.90;;;17.58;;
54384;SDS011;40284;52.878;5.998;2024-03-22T08:53:49;39.20;;;18.50;;
54384;SDS011;40284;52.878;5.998;2024-03-22T08:56:16;43.28;;;19.52;;
54384;SDS011;40284;52.878;5.998;2024-03-22T08:58:42;35.50;;;18.95;;
54384;SDS011;40284;52.878;5.998;2024-03-22T09:01:08;43.10;;;18.77;;
54384;SDS011;40284;52.878;5.998;2024-03-22T09:03:36;39.63;;;19.08;;
54384;SDS011;40284;52.878;5.998;2024-03-22T09:06:02;40.38;;;20.05;;
54384;SDS011;40284;52.878;5.998;2024-03-22T09:08:28;38.22;;;19.38;;
54384;SDS011;40284;52.878;5.998;2024-03-22T09:10:54;35.38;;;20.10;;
54384;SDS011;40284;52.878;5.998;2024-03-22T09:13:20;35.70;;;20.02;;
54384;SDS011;40284;52.878;5.998;2024-03-22T09:15:46;40.28;;;19.85;;
54384;SDS011;40284;52.878;5.998;2024-03-22T09:18:12;34.55;;;19.30;;
54384;SDS011;40284;52.878;5.998;2024-03-22T09:20:39;36.08;;;19.52;;
54384;SDS011;40284;52.878;5.998;2024-03-22T09:23:05;36.97;;;19.75;;
54384;SDS011;40284;52.878;5.998;2024-03-22T09:25:31;33.10;;;19.80;;
54384;SDS011;40284;52.878;5.998;2024-03-22T09:27:57;38.65;;;19.38;;
54384;SDS011;40284;52.878;5.998;2024-03-22T09:30:23;37.10;;;20.33;;
54384;SDS011;40284;52.878;5.998;2024-03-22T09:32:49;39.75;;;18.55;;
54384;SDS011;40284;52.878;5.998;2024-03-22T09:35:17;34.22;;;20.30;;
54384;SDS011;40284;52.878;5.998;2024-03-22T09:37:43;28.92;;;18.42;;
54384;SDS011;40284;52.878;5.998;2024-03-22T09:40:09;31.20;;;18.55;;
54384;SDS011;40284;52.878;5.998;2024-03-22T09:42:37;29.80;;;17.30;;
54384;SDS011;40284;52.878;5.998;2024-03-22T09:45:09;34.22;;;16.73;;
54384;SDS011;40284;52.878;5.998;2024-03-22T09:47:37;30.02;;;16.27;;
54384;SDS011;40284;52.878;5.998;2024-03-22T09:50:05;25.42;;;16.80;;
54384;SDS011;40284;52.878;5.998;2024-03-22T09:52:32;32.05;;;17.67;;
54384;SDS011;40284;52.878;5.998;2024-03-22T09:54:59;29.58;;;16.17;;
54384;SDS011;40284;52.878;5.998;2024-03-22T09:57:25;27.58;;;16.27;;
54384;SDS011;40284;52.878;5.998;2024-03-22T09:59:51;30.85;;;16.15;;
54384;SDS011;40284;52.878;5.998;2024-03-22T10:02:17;30.10;;;15.50;;
54384;SDS011;40284;52.878;5.998;2024-03-22T10:04:44;23.67;;;15.50;;
54384;SDS011;40284;52.878;5.998;2024-03-22T10:07:10;26.10;;;16.30;;
54384;SDS011;40284;52.878;5.998;2024-03-22T10:09:36;30.35;;;15.02;;
54384;SDS011;40284;52.878;5.998;2024-03-22T10:12:02;23.83;;;14.57;;
54384;SDS011;40284;52.878;5.998;2024-03-22T10:14:29;28.48;;;14.90;;
54384;SDS011;40284;52.878;5.998;2024-03-22T10:16:56;19.80;;;12.80;;
54384;SDS011;40284;52.878;5.998;2024-03-22T10:19:23;20.95;;;12.30;;
54384;SDS011;40284;52.878;5.998;2024-03-22T10:22:00;21.05;;;12.63;;
54384;SDS011;40284;52.878;5.998;2024-03-22T10:24:26;18.08;;;12.10;;
54384;SDS011;40284;52.878;5.998;2024-03-22T10:26:52;15.88;;;10.45;;
54384;SDS011;40284;52.878;5.998;2024-03-22T10:29:18;16.45;;;10.10;;
54384;SDS011;40284;52.878;5.998;2024-03-22T10:31:45;14.80;;;10.13;;
54384;SDS011;40284;52.878;5.998;2024-03-22T10:34:12;14.68;;;10.05;;
54384;SDS011;40284;52.878;5.998;2024-03-22T10:36:38;11.90;;;8.85;;
54384;SDS011;40284;52.878;5.998;2024-03-22T10:39:05;14.43;;;9.10;;
54384;SDS011;40284;52.878;5.998;2024-03-22T10:41:33;14.30;;;9.55;;
54384;SDS011;40284;52.878;5.998;2024-03-22T10:43:59;16.42;;;10.40;;
54384;SDS011;40284;52.878;5.998;2024-03-22T10:46:29;16.75;;;10.73;;
54384;SDS011;40284;52.878;5.998;2024-03-22T10:48:56;14.52;;;9.75;;
54384;SDS011;40284;52.878;5.998;2024-03-22T10:51:26;14.00;;;9.90;;
54384;SDS011;40284;52.878;5.998;2024-03-22T10:53:53;15.73;;;10.27;;
54384;SDS011;40284;52.878;5.998;2024-03-22T10:56:20;16.65;;;9.93;;
54384;SDS011;40284;52.878;5.998;2024-03-22T10:58:47;13.30;;;9.43;;
54384;SDS011;40284;52.878;5.998;2024-03-22T11:01:23;13.40;;;7.82;;
54384;SDS011;40284;52.878;5.998;2024-03-22T11:03:49;15.57;;;8.48;;
54384;SDS011;40284;52.878;5.998;2024-03-22T11:06:19;12.48;;;7.50;;
54384;SDS011;40284;52.878;5.998;2024-03-22T11:08:51;12.07;;;8.32;;
54384;SDS011;40284;52.878;5.998;2024-03-22T11:11:18;15.27;;;7.05;;
54384;SDS011;40284;52.878;5.998;2024-03-22T11:13:46;9.93;;;7.03;;
54384;SDS011;40284;52.878;5.998;2024-03-22T11:16:15;10.18;;;6.05;;
54384;SDS011;40284;52.878;5.998;2024-03-22T11:18:42;9.35;;;5.93;;
54384;SDS011;40284;52.878;5.998;2024-03-22T11:21:08;10.27;;;6.38;;
54384;SDS011;40284;52.878;5.998;2024-03-22T11:23:35;8.48;;;5.15;;
54384;SDS011;40284;52.878;5.998;2024-03-22T11:26:02;7.15;;;4.88;;
54384;SDS011;40284;52.878;5.998;2024-03-22T11:28:28;6.38;;;5.03;;
54384;SDS011;40284;52.878;5.998;2024-03-22T11:30:54;5.70;;;4.95;;
54384;SDS011;40284;52.878;5.998;2024-03-22T11:33:20;10.02;;;4.38;;
54384;SDS011;40284;52.878;5.998;2024-03-22T11:35:47;5.07;;;3.55;;
54384;SDS011;40284;52.878;5.998;2024-03-22T11:38:15;7.45;;;3.78;;
54384;SDS011;40284;52.878;5.998;2024-03-22T11:40:41;8.50;;;4.28;;
54384;SDS011;40284;52.878;5.998;2024-03-22T11:43:08;8.43;;;3.65;;
54384;SDS011;40284;52.878;5.998;2024-03-22T11:45:34;9.10;;;3.83;;
54384;SDS011;40284;52.878;5.998;2024-03-22T11:48:02;11.48;;;3.67;;
54384;SDS011;40284;52.878;5.998;2024-03-22T11:50:28;12.15;;;4.25;;
54384;SDS011;40284;52.878;5.998;2024-03-22T11:52:54;10.00;;;4.68;;
54384;SDS011;40284;52.878;5.998;2024-03-22T11:55:22;11.07;;;4.30;;
54384;SDS011;40284;52.878;5.998;2024-03-22T11:57:50;9.15;;;4.05;;
54384;SDS011;40284;52.878;5.998;2024-03-22T12:00:19;9.75;;;3.53;;
54384;SDS011;40284;52.878;5.998;2024-03-22T12:02:47;8.57;;;3.58;;
54384;SDS011;40284;52.878;5.998;2024-03-22T12:05:13;6.70;;;3.85;;
54384;SDS011;40284;52.878;5.998;2024-03-22T12:07:40;10.38;;;4.38;;
54384;SDS011;40284;52.878;5.998;2024-03-22T12:10:06;16.35;;;4.38;;
54384;SDS011;40284;52.878;5.998;2024-03-22T12:12:32;8.05;;;4.05;;
54384;SDS011;40284;52.878;5.998;2024-03-22T12:14:58;9.68;;;4.82;;
54384;SDS011;40284;52.878;5.998;2024-03-22T12:17:24;10.73;;;4.80;;
54384;SDS011;40284;52.878;5.998;2024-03-22T12:19:50;14.98;;;4.90;;
54384;SDS011;40284;52.878;5.998;2024-03-22T12:22:17;11.75;;;5.57;;
54384;SDS011;40284;52.878;5.998;2024-03-22T12:24:43;11.00;;;5.22;;
54384;SDS011;40284;52.878;5.998;2024-03-22T12:27:09;9.15;;;4.75;;
54384;SDS011;40284;52.878;5.998;2024-03-22T12:29:36;10.55;;;4.78;;
54384;SDS011;40284;52.878;5.998;2024-03-22T12:32:02;9.93;;;5.25;;
54384;SDS011;40284;52.878;5.998;2024-03-22T12:34:29;13.43;;;5.68;;
54384;SDS011;40284;52.878;5.998;2024-03-22T12:36:55;9.93;;;4.50;;
54384;SDS011;40284;52.878;5.998;2024-03-22T12:39:21;13.85;;;6.00;;
54384;SDS011;40284;52.878;5.998;2024-03-22T12:41:47;14.88;;;5.88;;
54384;SDS011;40284;52.878;5.998;2024-03-22T12:44:13;11.52;;;6.95;;
54384;SDS011;40284;52.878;5.998;2024-03-22T12:46:39;12.75;;;5.40;;
54384;SDS011;40284;52.878;5.998;2024-03-22T12:49:10;13.35;;;6.72;;
54384;SDS011;40284;52.878;5.998;2024-03-22T12:51:36;15.88;;;6.82;;
54384;SDS011;40284;52.878;5.998;2024-03-22T12:54:02;22.38;;;11.45;;
54384;SDS011;40284;52.878;5.998;2024-03-22T12:56:30;23.20;;;9.18;;
54384;SDS011;40284;52.878;5.998;2024-03-22T12:58:56;18.60;;;9.25;;
54384;SDS011;40284;52.878;5.998;2024-03-22T13:01:22;16.58;;;9.40;;
54384;SDS011;40284;52.878;5.998;2024-03-22T13:03:48;21.90;;;9.48;;
54384;SDS011;40284;52.878;5.998;2024-03-22T13:06:14;17.90;;;10.43;;
54384;SDS011;40284;52.878;5.998;2024-03-22T13:08:41;23.38;;;9.90;;
54384;SDS011;40284;52.878;5.998;2024-03-22T13:11:07;18.45;;;9.18;;
54384;SDS011;40284;52.878;5.998;2024-03-22T13:13:36;23.85;;;8.77;;
54384;SDS011;40284;52.878;5.998;2024-03-22T13:16:02;19.20;;;8.48;;
54384;SDS011;40284;52.878;5.998;2024-03-22T13:18:29;21.63;;;8.85;;
54384;SDS011;40284;52.878;5.998;2024-03-22T13:20:55;16.88;;;8.18;;
54384;SDS011;40284;52.878;5.998;2024-03-22T13:23:21;21.20;;;8.48;;
54384;SDS011;40284;52.878;5.998;2024-03-22T13:25:47;16.30;;;7.95;;
54384;SDS011;40284;52.878;5.998;2024-03-22T13:28:14;26.17;;;7.80;;
54384;SDS011;40284;52.878;5.998;2024-03-22T13:30:45;25.15;;;7.88;;
54384;SDS011;40284;52.878;5.998;2024-03-22T13:33:11;22.38;;;6.32;;
54384;SDS011;40284;52.878;5.998;2024-03-22T13:35:37;19.55;;;6.78;;
54384;SDS011;40284;52.878;5.998;2024-03-22T13:38:03;27.75;;;7.88;;
54384;SDS011;40284;52.878;5.998;2024-03-22T13:40:29;30.05;;;8.57;;
54384;SDS011;40284;52.878;5.998;2024-03-22T13:42:55;21.65;;;7.13;;
54384;SDS011;40284;52.878;5.998;2024-03-22T13:45:21;22.33;;;6.72;;
54384;SDS011;40284;52.878;5.998;2024-03-22T13:47:47;17.75;;;7.63;;
54384;SDS011;40284;52.878;5.998;2024-03-22T13:50:13;30.77;;;8.15;;
54384;SDS011;40284;52.878;5.998;2024-03-22T13:52:39;17.83;;;6.88;;
54384;SDS011;40284;52.878;5.998;2024-03-22T13:55:06;18.45;;;6.43;;
54384;SDS011;40284;52.878;5.998;2024-03-22T13:57:33;20.00;;;6.78;;
54384;SDS011;40284;52.878;5.998;2024-03-22T13:59:59;22.05;;;6.50;;
54384;SDS011;40284;52.878;5.998;2024-03-22T14:02:28;23.42;;;7.88;;
54384;SDS011;40284;52.878;5.998;2024-03-22T14:04:56;21.23;;;6.53;;
54384;SDS011;40284;52.878;5.998;2024-03-22T14:07:22;25.25;;;7.03;;
54384;SDS011;40284;52.878;5.998;2024-03-22T14:09:48;21.50;;;5.60;;
54384;SDS011;40284;52.878;5.998;2024-03-22T14:12:14;25.27;;;6.32;;
54384;SDS011;40284;52.878;5.998;2024-03-22T14:14:40;22.38;;;5.63;;
54384;SDS011;40284;52.878;5.998;2024-03-22T14:17:06;19.90;;;5.90;;
54384;SDS011;40284;52.878;5.998;2024-03-22T14:19:33;23.55;;;5.85;;
54384;SDS011;40284;52.878;5.998;2024-03-22T14:21:59;15.98;;;4.30;;